sensor_id;sensor_type;location;lat;lon;timestamp;temperature;humidity
19090;DHT22;9677;50.656;13.064;2022-11-15T00:00:34;10.40;61.50
19090;DHT22;9677;50.656;13.064;2022-11-15T00:03:23;10.40;61.50
19090;DHT22;9677;50.656;13.064;2022-11-15T00:06:12;10.40;61.50
19090;DHT22;9677;50.656;13.064;2022-11-15T00:08:59;10.30;61.40
19090;DHT22;9677;50.656;13.064;2022-11-15T00:12:06;10.30;61.40
19090;DHT22;9677;50.656;13.064;2022-11-15T00:14:54;10.30;61.30
19090;DHT22;9677;50.656;13.064;2022-11-15T00:17:41;10.30;61.30
19090;DHT22;9677;50.656;13.064;2022-11-15T00:20:27;10.30;61.30
19090;DHT22;9677;50.656;13.064;2022-11-15T00:23:15;10.30;61.30
19090;DHT22;9677;50.656;13.064;2022-11-15T00:26:03;10.30;61.20
19090;DHT22;9677;50.656;13.064;2022-11-15T00:28:53;10.20;61.20
19090;DHT22;9677;50.656;13.064;2022-11-15T00:31:40;10.20;61.10
19090;DHT22;9677;50.656;13.064;2022-11-15T00:34:27;10.10;61.10
19090;DHT22;9677;50.656;13.064;2022-11-15T00:37:14;10.10;61.10
19090;DHT22;9677;50.656;13.064;2022-11-15T00:40:01;10.10;61.20
19090;DHT22;9677;50.656;13.064;2022-11-15T00:42:48;10.00;61.20
19090;DHT22;9677;50.656;13.064;2022-11-15T00:45:36;10.00;61.20
19090;DHT22;9677;50.656;13.064;2022-11-15T00:48:24;10.00;61.20
19090;DHT22;9677;50.656;13.064;2022-11-15T00:51:10;10.00;61.20
19090;DHT22;9677;50.656;13.064;2022-11-15T00:54:18;9.90;61.20
19090;DHT22;9677;50.656;13.064;2022-11-15T00:57:05;9.90;61.20
19090;DHT22;9677;50.656;13.064;2022-11-15T00:59:52;9.90;61.20
19090;DHT22;9677;50.656;13.064;2022-11-15T01:02:41;9.90;61.20
19090;DHT22;9677;50.656;13.064;2022-11-15T01:05:28;9.80;61.20
19090;DHT22;9677;50.656;13.064;2022-11-15T01:08:16;9.80;61.20
19090;DHT22;9677;50.656;13.064;2022-11-15T01:11:05;9.80;61.20
19090;DHT22;9677;50.656;13.064;2022-11-15T01:13:55;9.80;61.20
19090;DHT22;9677;50.656;13.064;2022-11-15T01:16:42;9.80;61.20
19090;DHT22;9677;50.656;13.064;2022-11-15T01:19:30;9.80;61.20
19090;DHT22;9677;50.656;13.064;2022-11-15T01:22:17;9.70;61.20
19090;DHT22;9677;50.656;13.064;2022-11-15T01:25:05;9.70;61.20
19090;DHT22;9677;50.656;13.064;2022-11-15T01:28:13;9.70;61.20
19090;DHT22;9677;50.656;13.064;2022-11-15T01:31:01;9.60;61.00
19090;DHT22;9677;50.656;13.064;2022-11-15T01:33:49;9.60;61.00
19090;DHT22;9677;50.656;13.064;2022-11-15T01:36:38;9.60;61.00
19090;DHT22;9677;50.656;13.064;2022-11-15T01:39:25;9.50;61.00
19090;DHT22;9677;50.656;13.064;2022-11-15T01:42:13;9.50;61.00
19090;DHT22;9677;50.656;13.064;2022-11-15T01:45:00;9.50;61.10
19090;DHT22;9677;50.656;13.064;2022-11-15T01:47:50;9.40;61.10
19090;DHT22;9677;50.656;13.064;2022-11-15T01:50:39;9.40;61.10
19090;DHT22;9677;50.656;13.064;2022-11-15T01:53:27;9.40;61.20
19090;DHT22;9677;50.656;13.064;2022-11-15T01:56:19;9.30;61.20
19090;DHT22;9677;50.656;13.064;2022-11-15T01:59:08;9.30;61.20
19090;DHT22;9677;50.656;13.064;2022-11-15T02:01:55;9.30;61.20
19090;DHT22;9677;50.656;13.064;2022-11-15T02:04:44;9.30;61.20
19090;DHT22;9677;50.656;13.064;2022-11-15T02:07:34;9.20;61.20
19090;DHT22;9677;50.656;13.064;2022-11-15T02:10:24;9.20;61.20
19090;DHT22;9677;50.656;13.064;2022-11-15T02:13:11;9.20;61.20
19090;DHT22;9677;50.656;13.064;2022-11-15T02:16:04;9.20;61.20
19090;DHT22;9677;50.656;13.064;2022-11-15T02:19:00;9.10;61.20
19090;DHT22;9677;50.656;13.064;2022-11-15T02:21:55;9.10;61.20
19090;DHT22;9677;50.656;13.064;2022-11-15T02:25:04;9.10;61.20
19090;DHT22;9677;50.656;13.064;2022-11-15T02:31:40;9.00;61.30
19090;DHT22;9677;50.656;13.064;2022-11-15T02:34:38;9.00;61.30
19090;DHT22;9677;50.656;13.064;2022-11-15T02:37:55;9.00;61.30
19090;DHT22;9677;50.656;13.064;2022-11-15T02:40:49;8.90;61.20
19090;DHT22;9677;50.656;13.064;2022-11-15T02:43:43;8.90;61.20
19090;DHT22;9677;50.656;13.064;2022-11-15T02:46:49;8.90;61.20
19090;DHT22;9677;50.656;13.064;2022-11-15T02:49:58;8.90;61.30
19090;DHT22;9677;50.656;13.064;2022-11-15T02:52:48;8.80;61.30
19090;DHT22;9677;50.656;13.064;2022-11-15T02:55:37;8.80;61.30
19090;DHT22;9677;50.656;13.064;2022-11-15T02:58:48;8.80;61.30
19090;DHT22;9677;50.656;13.064;2022-11-15T03:01:56;8.70;61.40
19090;DHT22;9677;50.656;13.064;2022-11-15T03:04:54;8.70;61.30
19090;DHT22;9677;50.656;13.064;2022-11-15T03:07:48;8.70;61.20
19090;DHT22;9677;50.656;13.064;2022-11-15T03:10:53;8.70;61.20
19090;DHT22;9677;50.656;13.064;2022-11-15T03:13:49;8.70;61.30
19090;DHT22;9677;50.656;13.064;2022-11-15T03:16:47;8.60;61.20
19090;DHT22;9677;50.656;13.064;2022-11-15T03:19:41;8.60;61.20
19090;DHT22;9677;50.656;13.064;2022-11-15T03:22:35;8.60;61.30
19090;DHT22;9677;50.656;13.064;2022-11-15T03:25:25;8.50;61.30
19090;DHT22;9677;50.656;13.064;2022-11-15T03:28:16;8.50;61.30
19090;DHT22;9677;50.656;13.064;2022-11-15T03:31:05;8.50;61.30
19090;DHT22;9677;50.656;13.064;2022-11-15T03:34:12;8.50;61.30
19090;DHT22;9677;50.656;13.064;2022-11-15T03:37:07;8.40;61.30
19090;DHT22;9677;50.656;13.064;2022-11-15T03:39:55;8.40;61.30
19090;DHT22;9677;50.656;13.064;2022-11-15T03:42:48;8.40;61.30
19090;DHT22;9677;50.656;13.064;2022-11-15T03:45:44;8.40;61.30
19090;DHT22;9677;50.656;13.064;2022-11-15T03:48:37;8.30;61.30
19090;DHT22;9677;50.656;13.064;2022-11-15T03:51:29;8.30;61.40
19090;DHT22;9677;50.656;13.064;2022-11-15T03:54:16;8.30;61.40
19090;DHT22;9677;50.656;13.064;2022-11-15T03:57:03;8.20;61.50
19090;DHT22;9677;50.656;13.064;2022-11-15T03:59:50;8.20;61.50
19090;DHT22;9677;50.656;13.064;2022-11-15T04:02:37;8.20;61.60
19090;DHT22;9677;50.656;13.064;2022-11-15T04:05:24;8.20;61.60
19090;DHT22;9677;50.656;13.064;2022-11-15T04:08:12;8.20;61.70
19090;DHT22;9677;50.656;13.064;2022-11-15T04:11:00;8.20;61.80
19090;DHT22;9677;50.656;13.064;2022-11-15T04:13:47;8.20;61.80
19090;DHT22;9677;50.656;13.064;2022-11-15T04:16:34;8.20;61.90
19090;DHT22;9677;50.656;13.064;2022-11-15T04:19:28;8.10;61.90
19090;DHT22;9677;50.656;13.064;2022-11-15T04:22:32;8.20;62.00
19090;DHT22;9677;50.656;13.064;2022-11-15T04:25:38;8.10;62.00
19090;DHT22;9677;50.656;13.064;2022-11-15T04:28:25;8.10;62.10
19090;DHT22;9677;50.656;13.064;2022-11-15T04:31:12;8.10;62.00
19090;DHT22;9677;50.656;13.064;2022-11-15T04:34:00;8.10;62.00
19090;DHT22;9677;50.656;13.064;2022-11-15T04:36:47;8.10;61.90
19090;DHT22;9677;50.656;13.064;2022-11-15T04:39:51;8.10;61.90
19090;DHT22;9677;50.656;13.064;2022-11-15T04:42:41;8.10;61.90
19090;DHT22;9677;50.656;13.064;2022-11-15T04:45:28;8.10;61.90
19090;DHT22;9677;50.656;13.064;2022-11-15T04:48:15;8.10;61.90
19090;DHT22;9677;50.656;13.064;2022-11-15T04:51:03;8.00;61.80
19090;DHT22;9677;50.656;13.064;2022-11-15T04:53:50;8.00;61.80
19090;DHT22;9677;50.656;13.064;2022-11-15T04:56:37;8.00;61.70
19090;DHT22;9677;50.656;13.064;2022-11-15T04:59:25;8.00;61.70
19090;DHT22;9677;50.656;13.064;2022-11-15T05:02:12;8.00;61.60
19090;DHT22;9677;50.656;13.064;2022-11-15T05:04:59;7.90;61.50
19090;DHT22;9677;50.656;13.064;2022-11-15T05:07:45;7.90;61.50
19090;DHT22;9677;50.656;13.064;2022-11-15T05:10:33;7.90;61.50
19090;DHT22;9677;50.656;13.064;2022-11-15T05:13:19;7.90;61.50
19090;DHT22;9677;50.656;13.064;2022-11-15T05:16:08;7.80;61.50
19090;DHT22;9677;50.656;13.064;2022-11-15T05:18:55;7.80;61.50
19090;DHT22;9677;50.656;13.064;2022-11-15T05:21:42;7.80;61.60
19090;DHT22;9677;50.656;13.064;2022-11-15T05:24:29;7.70;61.50
19090;DHT22;9677;50.656;13.064;2022-11-15T05:27:16;7.70;61.60
19090;DHT22;9677;50.656;13.064;2022-11-15T05:30:04;7.70;61.60
19090;DHT22;9677;50.656;13.064;2022-11-15T05:32:53;7.60;61.60
19090;DHT22;9677;50.656;13.064;2022-11-15T05:35:42;7.60;61.60
19090;DHT22;9677;50.656;13.064;2022-11-15T05:38:33;7.60;61.70
19090;DHT22;9677;50.656;13.064;2022-11-15T05:41:25;7.60;61.70
19090;DHT22;9677;50.656;13.064;2022-11-15T05:44:17;7.50;61.70
19090;DHT22;9677;50.656;13.064;2022-11-15T05:47:09;7.50;61.60
19090;DHT22;9677;50.656;13.064;2022-11-15T05:50:01;7.50;61.60
19090;DHT22;9677;50.656;13.064;2022-11-15T05:52:49;7.50;62.40
19090;DHT22;9677;50.656;13.064;2022-11-15T05:55:37;7.40;61.70
19090;DHT22;9677;50.656;13.064;2022-11-15T05:58:25;7.40;61.70
19090;DHT22;9677;50.656;13.064;2022-11-15T06:01:12;7.40;61.70
19090;DHT22;9677;50.656;13.064;2022-11-15T06:03:59;7.40;61.70
19090;DHT22;9677;50.656;13.064;2022-11-15T06:06:48;7.40;61.70
19090;DHT22;9677;50.656;13.064;2022-11-15T06:09:35;7.30;61.70
19090;DHT22;9677;50.656;13.064;2022-11-15T06:12:22;7.30;61.70
19090;DHT22;9677;50.656;13.064;2022-11-15T06:15:09;7.30;61.80
19090;DHT22;9677;50.656;13.064;2022-11-15T06:17:56;7.30;61.80
19090;DHT22;9677;50.656;13.064;2022-11-15T06:20:44;7.20;61.60
19090;DHT22;9677;50.656;13.064;2022-11-15T06:23:33;7.20;61.70
19090;DHT22;9677;50.656;13.064;2022-11-15T06:26:21;7.20;61.80
19090;DHT22;9677;50.656;13.064;2022-11-15T06:29:08;7.20;61.80
19090;DHT22;9677;50.656;13.064;2022-11-15T06:31:55;7.20;61.80
19090;DHT22;9677;50.656;13.064;2022-11-15T06:34:42;7.20;61.90
19090;DHT22;9677;50.656;13.064;2022-11-15T06:37:29;7.20;61.80
19090;DHT22;9677;50.656;13.064;2022-11-15T06:40:18;7.10;61.80
19090;DHT22;9677;50.656;13.064;2022-11-15T06:43:06;7.10;61.80
19090;DHT22;9677;50.656;13.064;2022-11-15T06:45:53;7.10;62.00
19090;DHT22;9677;50.656;13.064;2022-11-15T06:52:42;7.10;62.30
19090;DHT22;9677;50.656;13.064;2022-11-15T06:55:31;7.10;62.20
19090;DHT22;9677;50.656;13.064;2022-11-15T06:58:18;7.10;62.30
19090;DHT22;9677;50.656;13.064;2022-11-15T07:01:08;7.10;62.40
19090;DHT22;9677;50.656;13.064;2022-11-15T07:03:57;7.10;62.40
19090;DHT22;9677;50.656;13.064;2022-11-15T07:06:46;7.10;62.30
19090;DHT22;9677;50.656;13.064;2022-11-15T07:09:34;7.10;62.30
19090;DHT22;9677;50.656;13.064;2022-11-15T07:12:22;7.10;62.30
19090;DHT22;9677;50.656;13.064;2022-11-15T07:15:10;7.10;62.30
19090;DHT22;9677;50.656;13.064;2022-11-15T07:18:00;7.20;62.40
19090;DHT22;9677;50.656;13.064;2022-11-15T07:20:47;7.10;62.40
19090;DHT22;9677;50.656;13.064;2022-11-15T07:23:36;7.10;62.40
19090;DHT22;9677;50.656;13.064;2022-11-15T07:26:23;7.10;62.50
19090;DHT22;9677;50.656;13.064;2022-11-15T07:29:12;7.10;62.40
19090;DHT22;9677;50.656;13.064;2022-11-15T07:31:59;7.10;62.50
19090;DHT22;9677;50.656;13.064;2022-11-15T07:34:46;7.10;62.50
19090;DHT22;9677;50.656;13.064;2022-11-15T07:37:33;7.10;62.60
19090;DHT22;9677;50.656;13.064;2022-11-15T07:40:20;7.10;62.70
19090;DHT22;9677;50.656;13.064;2022-11-15T07:43:08;7.10;62.80
19090;DHT22;9677;50.656;13.064;2022-11-15T07:45:57;7.10;62.90
19090;DHT22;9677;50.656;13.064;2022-11-15T07:48:44;7.20;63.10
19090;DHT22;9677;50.656;13.064;2022-11-15T07:51:31;7.20;63.00
19090;DHT22;9677;50.656;13.064;2022-11-15T07:54:18;7.20;63.00
19090;DHT22;9677;50.656;13.064;2022-11-15T07:57:05;7.30;63.10
19090;DHT22;9677;50.656;13.064;2022-11-15T07:59:54;7.30;63.10
19090;DHT22;9677;50.656;13.064;2022-11-15T08:02:42;7.30;63.00
19090;DHT22;9677;50.656;13.064;2022-11-15T08:05:30;7.30;63.20
19090;DHT22;9677;50.656;13.064;2022-11-15T08:08:17;7.30;63.30
19090;DHT22;9677;50.656;13.064;2022-11-15T08:11:04;7.40;63.50
19090;DHT22;9677;50.656;13.064;2022-11-15T08:13:51;7.40;63.50
19090;DHT22;9677;50.656;13.064;2022-11-15T08:16:38;7.40;63.60
19090;DHT22;9677;50.656;13.064;2022-11-15T08:19:27;7.50;63.60
19090;DHT22;9677;50.656;13.064;2022-11-15T08:22:14;7.50;63.60
19090;DHT22;9677;50.656;13.064;2022-11-15T08:25:01;7.60;63.60
19090;DHT22;9677;50.656;13.064;2022-11-15T08:27:51;7.60;63.70
19090;DHT22;9677;50.656;13.064;2022-11-15T08:30:41;7.60;63.70
19090;DHT22;9677;50.656;13.064;2022-11-15T08:33:31;7.70;63.80
19090;DHT22;9677;50.656;13.064;2022-11-15T08:36:21;7.70;63.80
19090;DHT22;9677;50.656;13.064;2022-11-15T08:39:10;7.80;64.00
19090;DHT22;9677;50.656;13.064;2022-11-15T08:41:58;7.80;64.10
19090;DHT22;9677;50.656;13.064;2022-11-15T08:44:45;7.90;64.20
19090;DHT22;9677;50.656;13.064;2022-11-15T08:47:32;8.00;64.40
19090;DHT22;9677;50.656;13.064;2022-11-15T08:50:20;8.00;64.40
19090;DHT22;9677;50.656;13.064;2022-11-15T08:53:10;8.10;64.50
19090;DHT22;9677;50.656;13.064;2022-11-15T08:55:57;8.20;64.70
19090;DHT22;9677;50.656;13.064;2022-11-15T08:58:44;8.30;64.70
19090;DHT22;9677;50.656;13.064;2022-11-15T09:01:32;8.40;64.90
19090;DHT22;9677;50.656;13.064;2022-11-15T09:04:19;8.50;65.00
19090;DHT22;9677;50.656;13.064;2022-11-15T09:07:06;8.60;65.00
19090;DHT22;9677;50.656;13.064;2022-11-15T09:09:55;8.60;65.00
19090;DHT22;9677;50.656;13.064;2022-11-15T09:12:42;8.80;65.20
19090;DHT22;9677;50.656;13.064;2022-11-15T09:15:29;8.80;65.10
19090;DHT22;9677;50.656;13.064;2022-11-15T09:18:16;9.00;65.20
19090;DHT22;9677;50.656;13.064;2022-11-15T09:21:08;9.00;65.10
19090;DHT22;9677;50.656;13.064;2022-11-15T09:23:55;9.20;65.30
19090;DHT22;9677;50.656;13.064;2022-11-15T09:26:44;9.30;65.30
19090;DHT22;9677;50.656;13.064;2022-11-15T09:29:31;9.40;65.30
19090;DHT22;9677;50.656;13.064;2022-11-15T09:32:19;9.50;65.10
19090;DHT22;9677;50.656;13.064;2022-11-15T09:35:08;9.60;65.10
19090;DHT22;9677;50.656;13.064;2022-11-15T09:37:57;9.70;65.00
19090;DHT22;9677;50.656;13.064;2022-11-15T09:40:48;10.00;65.30
19090;DHT22;9677;50.656;13.064;2022-11-15T09:43:47;9.90;65.10
19090;DHT22;9677;50.656;13.064;2022-11-15T09:46:46;9.90;65.10
19090;DHT22;9677;50.656;13.064;2022-11-15T09:49:37;10.10;65.10
19090;DHT22;9677;50.656;13.064;2022-11-15T09:52:15;10.20;65.00
19090;DHT22;9677;50.656;13.064;2022-11-15T09:54:48;10.30;65.10
19090;DHT22;9677;50.656;13.064;2022-11-15T09:57:28;10.30;65.00
19090;DHT22;9677;50.656;13.064;2022-11-15T10:00:09;10.50;65.10
19090;DHT22;9677;50.656;13.064;2022-11-15T10:03:09;10.60;65.80
19090;DHT22;9677;50.656;13.064;2022-11-15T10:05:41;10.70;65.10
19090;DHT22;9677;50.656;13.064;2022-11-15T10:08:22;10.70;65.00
19090;DHT22;9677;50.656;13.064;2022-11-15T10:11:01;10.90;65.10
19090;DHT22;9677;50.656;13.064;2022-11-15T10:13:54;11.00;65.00
19090;DHT22;9677;50.656;13.064;2022-11-15T10:19:56;11.20;65.20
19090;DHT22;9677;50.656;13.064;2022-11-15T10:22:39;11.30;65.00
19090;DHT22;9677;50.656;13.064;2022-11-15T10:25:20;11.40;64.80
19090;DHT22;9677;50.656;13.064;2022-11-15T10:27:54;11.50;64.90
19090;DHT22;9677;50.656;13.064;2022-11-15T10:30:36;11.60;64.80
19090;DHT22;9677;50.656;13.064;2022-11-15T10:33:17;11.70;64.70
19090;DHT22;9677;50.656;13.064;2022-11-15T10:36:14;11.90;64.70
19090;DHT22;9677;50.656;13.064;2022-11-15T10:38:56;12.00;64.60
19090;DHT22;9677;50.656;13.064;2022-11-15T10:41:36;12.00;64.30
19090;DHT22;9677;50.656;13.064;2022-11-15T10:44:14;12.20;64.40
19090;DHT22;9677;50.656;13.064;2022-11-15T10:47:23;12.30;64.30
19090;DHT22;9677;50.656;13.064;2022-11-15T10:50:00;12.40;64.30
19090;DHT22;9677;50.656;13.064;2022-11-15T10:52:34;12.50;64.20
19090;DHT22;9677;50.656;13.064;2022-11-15T10:55:19;12.60;64.10
19090;DHT22;9677;50.656;13.064;2022-11-15T10:57:52;12.70;64.10
19090;DHT22;9677;50.656;13.064;2022-11-15T11:00:31;12.80;64.10
19090;DHT22;9677;50.656;13.064;2022-11-15T11:03:02;12.90;64.00
19090;DHT22;9677;50.656;13.064;2022-11-15T11:05:37;13.10;64.00
19090;DHT22;9677;50.656;13.064;2022-11-15T11:08:22;13.20;63.90
19090;DHT22;9677;50.656;13.064;2022-11-15T11:10:53;13.30;63.70
19090;DHT22;9677;50.656;13.064;2022-11-15T11:13:30;13.40;63.70
19090;DHT22;9677;50.656;13.064;2022-11-15T11:16:22;13.60;63.70
19090;DHT22;9677;50.656;13.064;2022-11-15T11:19:17;13.70;63.60
19090;DHT22;9677;50.656;13.064;2022-11-15T11:21:59;13.80;63.40
19090;DHT22;9677;50.656;13.064;2022-11-15T11:24:36;14.00;63.40
19090;DHT22;9677;50.656;13.064;2022-11-15T11:27:33;14.10;63.30
19090;DHT22;9677;50.656;13.064;2022-11-15T11:30:12;14.30;63.00
19090;DHT22;9677;50.656;13.064;2022-11-15T11:33:14;14.40;62.80
19090;DHT22;9677;50.656;13.064;2022-11-15T11:35:51;14.60;62.50
19090;DHT22;9677;50.656;13.064;2022-11-15T11:38:40;14.70;62.30
19090;DHT22;9677;50.656;13.064;2022-11-15T11:41:24;14.80;61.90
19090;DHT22;9677;50.656;13.064;2022-11-15T11:44:07;14.90;61.70
19090;DHT22;9677;50.656;13.064;2022-11-15T11:46:50;15.00;61.60
19090;DHT22;9677;50.656;13.064;2022-11-15T11:49:31;15.10;61.30
19090;DHT22;9677;50.656;13.064;2022-11-15T11:52:09;15.30;61.10
19090;DHT22;9677;50.656;13.064;2022-11-15T11:54:47;15.40;60.80
19090;DHT22;9677;50.656;13.064;2022-11-15T11:57:29;15.40;60.60
19090;DHT22;9677;50.656;13.064;2022-11-15T12:00:15;15.50;60.30
19090;DHT22;9677;50.656;13.064;2022-11-15T12:02:54;15.60;60.10
19090;DHT22;9677;50.656;13.064;2022-11-15T12:05:35;15.70;60.10
19090;DHT22;9677;50.656;13.064;2022-11-15T12:08:22;15.70;60.00
19090;DHT22;9677;50.656;13.064;2022-11-15T12:11:03;15.80;59.70
19090;DHT22;9677;50.656;13.064;2022-11-15T12:13:37;15.80;59.60
19090;DHT22;9677;50.656;13.064;2022-11-15T12:16:12;15.90;59.60
19090;DHT22;9677;50.656;13.064;2022-11-15T12:18:46;16.00;59.40
19090;DHT22;9677;50.656;13.064;2022-11-15T12:21:19;16.00;59.40
19090;DHT22;9677;50.656;13.064;2022-11-15T12:24:00;16.00;59.30
19090;DHT22;9677;50.656;13.064;2022-11-15T12:26:37;16.10;59.20
19090;DHT22;9677;50.656;13.064;2022-11-15T12:29:16;16.10;59.70
19090;DHT22;9677;50.656;13.064;2022-11-15T12:31:50;16.10;59.10
19090;DHT22;9677;50.656;13.064;2022-11-15T12:34:43;16.20;59.00
19090;DHT22;9677;50.656;13.064;2022-11-15T12:37:46;16.20;58.80
19090;DHT22;9677;50.656;13.064;2022-11-15T12:40:28;16.20;58.70
19090;DHT22;9677;50.656;13.064;2022-11-15T12:46:13;16.30;58.20
19090;DHT22;9677;50.656;13.064;2022-11-15T12:48:52;16.30;58.60
19090;DHT22;9677;50.656;13.064;2022-11-15T12:54:53;16.40;58.40
19090;DHT22;9677;50.656;13.064;2022-11-15T12:57:39;16.40;58.00
19090;DHT22;9677;50.656;13.064;2022-11-15T13:03:21;16.40;57.80
19090;DHT22;9677;50.656;13.064;2022-11-15T13:06:04;16.40;58.10
19090;DHT22;9677;50.656;13.064;2022-11-15T13:08:47;16.50;57.80
19090;DHT22;9677;50.656;13.064;2022-11-15T13:11:43;16.50;57.70
19090;DHT22;9677;50.656;13.064;2022-11-15T13:14:39;16.50;57.50
19090;DHT22;9677;50.656;13.064;2022-11-15T13:17:25;16.50;57.40
19090;DHT22;9677;50.656;13.064;2022-11-15T13:20:22;16.50;57.50
19090;DHT22;9677;50.656;13.064;2022-11-15T13:22:58;16.50;57.20
19090;DHT22;9677;50.656;13.064;2022-11-15T13:26:06;16.50;57.50
19090;DHT22;9677;50.656;13.064;2022-11-15T13:28:43;16.50;57.10
19090;DHT22;9677;50.656;13.064;2022-11-15T13:31:26;16.50;57.30
19090;DHT22;9677;50.656;13.064;2022-11-15T13:34:03;16.50;57.10
19090;DHT22;9677;50.656;13.064;2022-11-15T13:37:10;16.50;57.20
19090;DHT22;9677;50.656;13.064;2022-11-15T13:39:41;16.50;57.20
19090;DHT22;9677;50.656;13.064;2022-11-15T13:42:14;16.50;57.20
19090;DHT22;9677;50.656;13.064;2022-11-15T13:45:11;16.40;57.10
19090;DHT22;9677;50.656;13.064;2022-11-15T13:47:41;16.40;57.20
19090;DHT22;9677;50.656;13.064;2022-11-15T13:50:12;16.40;57.10
19090;DHT22;9677;50.656;13.064;2022-11-15T13:52:43;16.40;56.90
19090;DHT22;9677;50.656;13.064;2022-11-15T13:55:18;16.40;56.90
19090;DHT22;9677;50.656;13.064;2022-11-15T13:57:51;16.40;56.90
19090;DHT22;9677;50.656;13.064;2022-11-15T14:00:27;16.40;56.80
19090;DHT22;9677;50.656;13.064;2022-11-15T14:03:07;16.40;56.80
19090;DHT22;9677;50.656;13.064;2022-11-15T14:05:43;16.40;56.70
19090;DHT22;9677;50.656;13.064;2022-11-15T14:08:22;16.30;56.70
19090;DHT22;9677;50.656;13.064;2022-11-15T14:11:07;16.30;56.50
19090;DHT22;9677;50.656;13.064;2022-11-15T14:13:37;16.30;56.80
19090;DHT22;9677;50.656;13.064;2022-11-15T14:16:16;16.30;56.60
19090;DHT22;9677;50.656;13.064;2022-11-15T14:18:48;16.20;56.40
19090;DHT22;9677;50.656;13.064;2022-11-15T14:21:20;16.20;56.60
19090;DHT22;9677;50.656;13.064;2022-11-15T14:23:48;16.20;56.40
19090;DHT22;9677;50.656;13.064;2022-11-15T14:26:29;16.20;56.50
19090;DHT22;9677;50.656;13.064;2022-11-15T14:29:22;16.20;56.30
19090;DHT22;9677;50.656;13.064;2022-11-15T14:31:51;16.10;56.20
19090;DHT22;9677;50.656;13.064;2022-11-15T14:34:20;16.10;56.50
19090;DHT22;9677;50.656;13.064;2022-11-15T14:36:50;16.10;56.50
19090;DHT22;9677;50.656;13.064;2022-11-15T14:39:19;16.00;56.40
19090;DHT22;9677;50.656;13.064;2022-11-15T14:41:49;16.00;56.40
19090;DHT22;9677;50.656;13.064;2022-11-15T14:44:17;16.00;56.40
19090;DHT22;9677;50.656;13.064;2022-11-15T14:46:47;15.90;56.30
19090;DHT22;9677;50.656;13.064;2022-11-15T14:49:16;15.90;56.30
19090;DHT22;9677;50.656;13.064;2022-11-15T14:51:44;15.80;56.30
19090;DHT22;9677;50.656;13.064;2022-11-15T14:54:14;15.80;56.30
19090;DHT22;9677;50.656;13.064;2022-11-15T14:56:43;15.70;56.30
19090;DHT22;9677;50.656;13.064;2022-11-15T14:59:11;15.70;56.30
19090;DHT22;9677;50.656;13.064;2022-11-15T15:01:40;15.70;56.30
19090;DHT22;9677;50.656;13.064;2022-11-15T15:04:10;15.60;56.30
19090;DHT22;9677;50.656;13.064;2022-11-15T15:06:38;15.60;56.30
19090;DHT22;9677;50.656;13.064;2022-11-15T15:09:07;15.50;56.20
19090;DHT22;9677;50.656;13.064;2022-11-15T15:11:37;15.50;56.20
19090;DHT22;9677;50.656;13.064;2022-11-15T15:14:07;15.40;56.20
19090;DHT22;9677;50.656;13.064;2022-11-15T15:16:36;15.30;56.20
19090;DHT22;9677;50.656;13.064;2022-11-15T15:19:04;15.30;56.20
19090;DHT22;9677;50.656;13.064;2022-11-15T15:21:33;15.20;56.20
19090;DHT22;9677;50.656;13.064;2022-11-15T15:24:04;15.10;56.20
19090;DHT22;9677;50.656;13.064;2022-11-15T15:26:32;15.10;56.30
19090;DHT22;9677;50.656;13.064;2022-11-15T15:29:05;15.00;56.20
19090;DHT22;9677;50.656;13.064;2022-11-15T15:31:35;14.90;56.20
19090;DHT22;9677;50.656;13.064;2022-11-15T15:34:04;14.90;56.30
19090;DHT22;9677;50.656;13.064;2022-11-15T15:36:39;14.90;56.40
19090;DHT22;9677;50.656;13.064;2022-11-15T15:39:09;14.80;56.40
19090;DHT22;9677;50.656;13.064;2022-11-15T15:41:38;14.70;56.50
19090;DHT22;9677;50.656;13.064;2022-11-15T15:44:08;14.60;56.40
19090;DHT22;9677;50.656;13.064;2022-11-15T15:46:37;14.60;56.40
19090;DHT22;9677;50.656;13.064;2022-11-15T15:49:07;14.50;56.40
19090;DHT22;9677;50.656;13.064;2022-11-15T15:51:37;14.50;56.50
19090;DHT22;9677;50.656;13.064;2022-11-15T15:54:05;14.40;56.50
19090;DHT22;9677;50.656;13.064;2022-11-15T15:56:34;14.40;56.60
19090;DHT22;9677;50.656;13.064;2022-11-15T15:59:03;14.30;56.50
19090;DHT22;9677;50.656;13.064;2022-11-15T16:01:33;14.30;56.60
19090;DHT22;9677;50.656;13.064;2022-11-15T16:04:01;14.20;56.60
19090;DHT22;9677;50.656;13.064;2022-11-15T16:06:37;14.10;56.60
19090;DHT22;9677;50.656;13.064;2022-11-15T16:09:12;14.00;56.50
19090;DHT22;9677;50.656;13.064;2022-11-15T16:11:45;14.00;56.60
19090;DHT22;9677;50.656;13.064;2022-11-15T16:14:14;13.90;56.60
19090;DHT22;9677;50.656;13.064;2022-11-15T16:16:44;13.80;57.30
19090;DHT22;9677;50.656;13.064;2022-11-15T16:19:13;13.80;56.70
19090;DHT22;9677;50.656;13.064;2022-11-15T16:21:41;13.70;56.80
19090;DHT22;9677;50.656;13.064;2022-11-15T16:24:10;13.70;56.80
19090;DHT22;9677;50.656;13.064;2022-11-15T16:26:39;13.60;56.80
19090;DHT22;9677;50.656;13.064;2022-11-15T16:29:08;13.60;56.90
19090;DHT22;9677;50.656;13.064;2022-11-15T16:31:37;13.50;56.90
19090;DHT22;9677;50.656;13.064;2022-11-15T16:34:07;13.50;56.90
19090;DHT22;9677;50.656;13.064;2022-11-15T16:36:36;13.40;56.90
19090;DHT22;9677;50.656;13.064;2022-11-15T16:39:04;13.30;56.90
19090;DHT22;9677;50.656;13.064;2022-11-15T16:41:33;13.30;56.90
19090;DHT22;9677;50.656;13.064;2022-11-15T16:44:02;13.30;57.00
19090;DHT22;9677;50.656;13.064;2022-11-15T16:46:31;13.20;57.00
19090;DHT22;9677;50.656;13.064;2022-11-15T16:48:59;13.10;57.00
19090;DHT22;9677;50.656;13.064;2022-11-15T16:51:29;13.10;57.00
19090;DHT22;9677;50.656;13.064;2022-11-15T16:53:58;13.00;57.10
19090;DHT22;9677;50.656;13.064;2022-11-15T16:56:28;13.00;57.70
19090;DHT22;9677;50.656;13.064;2022-11-15T16:58:59;12.90;57.10
19090;DHT22;9677;50.656;13.064;2022-11-15T17:01:31;12.90;57.20
19090;DHT22;9677;50.656;13.064;2022-11-15T17:04:02;12.80;57.80
19090;DHT22;9677;50.656;13.064;2022-11-15T17:06:41;12.80;57.20
19090;DHT22;9677;50.656;13.064;2022-11-15T17:09:12;12.70;57.30
19090;DHT22;9677;50.656;13.064;2022-11-15T17:11:42;12.70;57.30
19090;DHT22;9677;50.656;13.064;2022-11-15T17:14:11;12.60;57.30
19090;DHT22;9677;50.656;13.064;2022-11-15T17:16:40;12.60;57.40
19090;DHT22;9677;50.656;13.064;2022-11-15T17:19:14;12.50;57.30
19090;DHT22;9677;50.656;13.064;2022-11-15T17:21:46;12.50;57.40
19090;DHT22;9677;50.656;13.064;2022-11-15T17:24:16;12.40;57.40
19090;DHT22;9677;50.656;13.064;2022-11-15T17:26:47;12.40;57.40
19090;DHT22;9677;50.656;13.064;2022-11-15T17:29:16;12.30;57.50
19090;DHT22;9677;50.656;13.064;2022-11-15T17:31:45;12.30;57.50
19090;DHT22;9677;50.656;13.064;2022-11-15T17:34:13;12.30;57.60
19090;DHT22;9677;50.656;13.064;2022-11-15T17:36:43;12.20;57.60
19090;DHT22;9677;50.656;13.064;2022-11-15T17:39:13;12.20;57.70
19090;DHT22;9677;50.656;13.064;2022-11-15T17:41:42;12.10;57.70